Time;durP1;ratioP1;P1;durP2;ratioP2;P2;SDS_P1;SDS_P2;PMS_P1;PMS_P2;Temp;Humidity;BMP_temperature;BMP_pressure;BME280_temperature;BME280_humidity;BME280_pressure;Samples;Min_cycle;Max_cycle;Signal;HPM_P1;HPM_P2
2021/04/16 00:00:52;;;;;;;22.30;14.10;;;4.00;99.90;;;;;;5121993;28;20027;-68
2021/04/16 00:03:19;;;;;;;20.38;13.40;;;4.00;99.90;;;;;;5119284;27;20076;-67
2021/04/16 00:05:45;;;;;;;36.13;20.20;;;4.00;99.90;;;;;;5120893;28;20030;-68
2021/04/16 00:08:24;;;;;;;70.72;33.10;;;4.00;99.90;;;;;;5121944;28;20020;-68
2021/04/16 00:11:00;;;;;;;64.07;32.58;;;3.90;99.90;;;;;;5121087;28;20019;-72
2021/04/16 00:13:27;;;;;;;76.15;36.80;;;4.10;99.90;;;;;;5121715;28;20023;-68
2021/04/16 00:15:54;;;;;;;119.55;56.78;;;4.20;99.90;;;;;;5122517;28;20016;-71
2021/04/16 00:18:24;;;;;;;64.47;32.95;;;4.20;99.90;;;;;;5122201;28;20038;-73
2021/04/16 00:20:50;;;;;;;61.70;31.13;;;4.20;99.90;;;;;;5121256;28;20377;-68
2021/04/16 00:23:16;;;;;;;46.08;25.33;;;4.20;99.90;;;;;;5120425;28;20020;-69
2021/04/16 00:25:42;;;;;;;46.33;24.27;;;4.20;99.90;;;;;;5122933;28;20102;-72
2021/04/16 00:28:10;;;;;;;41.17;22.27;;;4.10;99.90;;;;;;5121829;28;20016;-67
2021/04/16 00:30:44;;;;;;;42.20;21.60;;;4.20;99.90;;;;;;5120837;28;20020;-68
2021/04/16 00:33:10;;;;;;;32.10;16.88;;;4.10;99.90;;;;;;5122671;28;20359;-68
2021/04/16 00:35:36;;;;;;;27.58;15.40;;;4.20;99.90;;;;;;5123629;28;20103;-68
2021/04/16 00:38:04;;;;;;;31.98;16.90;;;4.10;99.90;;;;;;5122555;27;20014;-71
2021/04/16 00:40:39;;;;;;;21.02;12.70;;;4.20;99.90;;;;;;5122457;28;20015;-72
2021/04/16 00:43:06;;;;;;;24.17;13.50;;;4.10;99.90;;;;;;5123154;28;20047;-72
2021/04/16 00:45:34;;;;;;;23.63;13.93;;;4.10;99.90;;;;;;5122572;28;20024;-68
2021/04/16 00:48:03;;;;;;;25.17;14.07;;;4.10;99.90;;;;;;5120026;28;20464;-68
2021/04/16 00:50:47;;;;;;;20.00;13.15;;;4.00;99.90;;;;;;5120114;28;20090;-68
2021/04/16 00:53:17;;;;;;;19.33;13.35;;;4.00;99.90;;;;;;5121534;28;20024;-71
2021/04/16 00:55:43;;;;;;;18.48;12.45;;;4.00;99.90;;;;;;5122810;28;20071;-68
2021/04/16 00:58:10;;;;;;;19.75;12.25;;;4.00;99.90;;;;;;5122084;28;20011;-68
2021/04/16 01:00:37;;;;;;;15.77;10.85;;;4.10;99.90;;;;;;5119877;28;20393;-68
2021/04/16 01:03:04;;;;;;;18.50;11.57;;;4.20;99.90;;;;;;5120535;28;20044;-71
2021/04/16 01:05:31;;;;;;;19.15;12.93;;;4.00;99.90;;;;;;5120655;28;20012;-71
2021/04/16 01:07:57;;;;;;;22.67;14.73;;;3.90;99.90;;;;;;5121343;28;20023;-72
2021/04/16 01:10:23;;;;;;;20.45;13.18;;;3.90;99.90;;;;;;5121347;28;20024;-72
2021/04/16 01:12:50;;;;;;;19.67;13.32;;;3.90;99.90;;;;;;5121004;28;20028;-72
2021/04/16 01:15:29;;;;;;;19.90;12.80;;;3.70;99.90;;;;;;5121694;28;20015;-67
2021/04/16 01:17:59;;;;;;;19.75;12.75;;;3.70;99.90;;;;;;5120950;28;20031;-70
2021/04/16 01:20:30;;;;;;;20.10;12.63;;;3.70;99.90;;;;;;5121084;28;20046;-66
2021/04/16 01:23:02;;;;;;;21.05;13.82;;;3.60;99.90;;;;;;5120543;28;20059;-67
2021/04/16 01:25:30;;;;;;;20.55;13.63;;;3.60;99.90;;;;;;5121648;28;20024;-72
2021/04/16 01:27:56;;;;;;;27.30;18.05;;;3.60;99.90;;;;;;5121983;28;20012;-69
2021/04/16 01:30:26;;;;;;;39.60;25.98;;;3.60;99.90;;;;;;5119236;28;20077;-74
2021/04/16 01:32:53;;;;;;;45.45;28.17;;;3.60;99.90;;;;;;5120147;28;20419;-72
2021/04/16 01:35:29;;;;;;;62.83;34.63;;;3.40;99.90;;;;;;5120746;27;20016;-72
2021/04/16 01:37:55;;;;;;;123.00;52.60;;;3.50;99.90;;;;;;5119181;28;20060;-72
2021/04/16 01:40:23;;;;;;;220.60;85.40;;;3.60;99.90;;;;;;5120090;28;20373;-67
2021/04/16 01:42:49;;;;;;;46.85;26.38;;;3.60;99.90;;;;;;5119833;28;20016;-68
2021/04/16 01:45:22;;;;;;;76.50;36.33;;;3.40;99.90;;;;;;5122226;28;20084;-72
2021/04/16 01:47:59;;;;;;;149.50;60.13;;;3.50;99.90;;;;;;5121140;28;20398;-72
2021/04/16 01:50:26;;;;;;;103.85;45.95;;;3.40;99.90;;;;;;5121764;28;20499;-71
2021/04/16 01:52:52;;;;;;;47.22;26.02;;;3.20;99.90;;;;;;5122027;28;20020;-71
2021/04/16 01:55:19;;;;;;;89.97;44.92;;;3.20;99.90;;;;;;5120448;28;20029;-69
2021/04/16 01:57:47;;;;;;;51.28;26.25;;;3.10;99.90;;;;;;5118868;28;20088;-72
2021/04/16 02:00:34;;;;;;;59.28;28.13;;;3.10;99.90;;;;;;5120760;28;20031;-68
2021/04/16 02:03:01;;;;;;;84.53;36.25;;;3.10;99.90;;;;;;5119475;28;20050;-69
2021/04/16 02:05:27;;;;;;;156.73;54.80;;;3.10;99.90;;;;;;5121038;28;20015;-68
2021/04/16 02:07:54;;;;;;;244.43;79.20;;;3.10;99.90;;;;;;5120174;28;20020;-72
2021/04/16 02:10:21;;;;;;;97.15;36.25;;;3.10;99.90;;;;;;5120115;28;20026;-69
2021/04/16 02:12:47;;;;;;;35.60;23.73;;;3.20;99.90;;;;;;5117582;28;20023;-68
2021/04/16 02:15:13;;;;;;;50.05;33.15;;;3.10;99.90;;;;;;5120385;28;20024;-72
2021/04/16 02:17:40;;;;;;;85.60;46.70;;;3.10;99.90;;;;;;5120865;28;20015;-71
2021/04/16 02:20:11;;;;;;;137.05;66.05;;;3.20;99.90;;;;;;5121743;28;20038;-67
2021/04/16 02:22:37;;;;;;;97.97;58.10;;;3.10;99.90;;;;;;5118976;28;20457;-72
2021/04/16 02:25:04;;;;;;;94.55;58.88;;;3.10;99.90;;;;;;5120019;28;20020;-69
2021/04/16 02:27:31;;;;;;;60.65;40.00;;;3.10;99.90;;;;;;5119386;28;20016;-69
2021/04/16 02:29:57;;;;;;;48.40;32.15;;;3.10;99.90;;;;;;5119644;28;20034;-72
2021/04/16 02:32:24;;;;;;;48.08;27.70;;;3.10;99.90;;;;;;5119617;28;20016;-68
2021/04/16 02:34:50;;;;;;;33.92;21.38;;;3.00;99.90;;;;;;5118852;28;20023;-68
2021/04/16 02:37:19;;;;;;;36.40;20.52;;;2.90;99.90;;;;;;5120785;27;20089;-67
2021/04/16 02:39:45;;;;;;;35.35;20.40;;;2.80;99.90;;;;;;5119538;28;20047;-72
2021/04/16 02:42:11;;;;;;;27.63;16.88;;;2.80;99.90;;;;;;5119966;27;20016;-68
2021/04/16 02:44:37;;;;;;;31.25;17.73;;;2.80;99.90;;;;;;5119587;28;20016;-70
2021/04/16 02:47:05;;;;;;;24.95;15.57;;;2.80;99.90;;;;;;5119791;28;20038;-67
2021/04/16 02:49:32;;;;;;;52.53;23.63;;;2.80;99.90;;;;;;5118807;28;20022;-68
2021/04/16 02:51:58;;;;;;;30.30;17.50;;;2.70;99.90;;;;;;5118336;28;20030;-69
2021/04/16 02:54:24;;;;;;;74.07;29.50;;;2.70;99.90;;;;;;5120769;28;20020;-71
2021/04/16 02:56:51;;;;;;;24.60;15.65;;;2.60;99.90;;;;;;5120843;28;20029;-68
2021/04/16 02:59:21;;;;;;;38.63;18.52;;;2.60;99.90;;;;;;5119647;28;20030;-70
2021/04/16 03:01:47;;;;;;;30.25;15.68;;;2.60;99.90;;;;;;5120177;28;20034;-68
2021/04/16 03:04:13;;;;;;;46.22;20.70;;;2.50;99.90;;;;;;5118482;28;20047;-72
2021/04/16 03:06:40;;;;;;;76.03;31.05;;;2.50;99.90;;;;;;5119463;28;20011;-72
2021/04/16 03:09:08;;;;;;;17.60;12.65;;;2.50;99.90;;;;;;5119094;28;20084;-69
2021/04/16 03:11:34;;;;;;;22.95;14.30;;;2.60;99.90;;;;;;5120547;28;20087;-69
2021/04/16 03:14:00;;;;;;;47.63;22.00;;;2.50;99.90;;;;;;5119288;28;20019;-68
2021/04/16 03:16:28;;;;;;;77.95;32.75;;;2.50;99.90;;;;;;5119735;28;20084;-71
2021/04/16 03:18:56;;;;;;;27.90;15.60;;;2.50;99.90;;;;;;5118148;28;20050;-67
2021/04/16 03:21:23;;;;;;;24.23;14.40;;;2.50;99.90;;;;;;5117850;28;20016;-67
2021/04/16 03:23:49;;;;;;;35.97;20.67;;;2.60;99.90;;;;;;5120550;28;20008;-71
2021/04/16 03:26:16;;;;;;;37.72;21.98;;;2.50;99.90;;;;;;5119718;28;20480;-71
2021/04/16 03:28:43;;;;;;;38.53;22.35;;;2.50;99.90;;;;;;5117478;28;20028;-70
2021/04/16 03:31:09;;;;;;;68.15;32.38;;;2.50;99.90;;;;;;5120489;28;20011;-68
2021/04/16 03:33:35;;;;;;;96.63;41.88;;;2.40;99.90;;;;;;5119300;28;20107;-67
2021/04/16 03:36:02;;;;;;;113.53;47.30;;;2.50;99.90;;;;;;5120553;28;20043;-68
2021/04/16 03:38:28;;;;;;;118.28;51.50;;;2.40;99.90;;;;;;5119157;28;20065;-69
2021/04/16 03:40:54;;;;;;;153.38;62.45;;;2.50;99.90;;;;;;5118584;28;20351;-71
2021/04/16 03:43:20;;;;;;;187.65;72.82;;;2.50;99.90;;;;;;5117925;28;20380;-68
2021/04/16 03:45:46;;;;;;;225.13;85.50;;;2.40;99.90;;;;;;5118393;28;20083;-71
2021/04/16 03:48:12;;;;;;;244.25;96.30;;;2.30;99.90;;;;;;5117145;28;20155;-72
2021/04/16 03:50:38;;;;;;;253.77;96.90;;;2.40;99.90;;;;;;5118588;28;20034;-71
2021/04/16 03:53:06;;;;;;;215.00;87.25;;;2.40;99.90;;;;;;5117093;28;20041;-69
2021/04/16 03:55:36;;;;;;;169.70;70.38;;;2.40;99.90;;;;;;5121122;28;20473;-69
2021/04/16 03:58:03;;;;;;;159.63;64.60;;;2.40;99.90;;;;;;5118192;28;20035;-72
2021/04/16 04:00:32;;;;;;;122.57;50.60;;;2.50;99.90;;;;;;5117634;28;20023;-71
2021/04/16 04:02:59;;;;;;;85.38;45.97;;;2.60;99.90;;;;;;5117038;28;20035;-72
2021/04/16 04:05:26;;;;;;;50.70;21.83;;;2.50;99.90;;;;;;5123381;28;20294;-72
2021/04/16 04:07:52;;;;;;;54.35;28.55;;;2.50;99.90;;;;;;5122795;27;20023;-68
2021/04/16 04:10:20;;;;;;;52.45;25.90;;;2.40;99.90;;;;;;5122370;27;20023;-69
2021/04/16 04:12:47;;;;;;;63.17;29.27;;;2.50;99.90;;;;;;5121621;28;20106;-68
2021/04/16 04:15:14;;;;;;;77.90;34.85;;;2.70;99.90;;;;;;5123021;28;20011;-68
2021/04/16 04:17:39;;;;;;;85.70;40.35;;;2.60;99.90;;;;;;5121324;28;20123;-67
2021/04/16 04:20:18;;;;;;;54.63;24.63;;;2.70;99.90;;;;;;5122347;28;20091;-68
2021/04/16 04:22:43;;;;;;;38.17;20.05;;;2.60;99.90;;;;;;5122308;28;20039;-72
2021/04/16 04:25:10;;;;;;;39.67;20.80;;;2.50;99.90;;;;;;5120660;28;20016;-71
2021/04/16 04:27:36;;;;;;;34.42;17.30;;;2.60;99.90;;;;;;5123331;28;20069;-69
2021/04/16 04:30:05;;;;;;;32.20;18.65;;;2.60;99.90;;;;;;5121831;28;20023;-69
2021/04/16 04:32:31;;;;;;;33.58;20.20;;;2.60;99.90;;;;;;5124169;28;20016;-70
2021/04/16 04:34:57;;;;;;;33.25;17.85;;;2.70;99.90;;;;;;5119997;27;20024;-72
2021/04/16 04:37:23;;;;;;;31.30;16.63;;;2.70;99.90;;;;;;5120556;27;20055;-71
2021/04/16 04:39:49;;;;;;;27.40;17.45;;;2.90;99.90;;;;;;5121838;28;20016;-71
2021/04/16 04:42:15;;;;;;;69.72;36.33;;;3.00;99.90;;;;;;5120202;28;20072;-71
2021/04/16 04:44:41;;;;;;;65.85;35.58;;;3.10;99.90;;;;;;5122111;28;20500;-68
2021/04/16 04:47:08;;;;;;;31.77;19.90;;;3.10;99.90;;;;;;5120978;28;20016;-68
2021/04/16 04:49:35;;;;;;;35.13;21.33;;;3.20;99.90;;;;;;5122982;28;20495;-70
2021/04/16 04:52:40;;;;;;;35.67;18.60;;;3.20;99.90;;;;;;5120936;28;20027;-72
2021/04/16 04:55:14;;;;;;;52.05;29.45;;;3.40;99.90;;;;;;5059724;28;20037;-70
2021/04/16 04:57:40;;;;;;;53.37;29.83;;;3.40;99.90;;;;;;5058316;28;20032;-68
2021/04/16 05:00:09;;;;;;;44.50;26.55;;;3.50;99.90;;;;;;5057531;28;20041;-67
2021/04/16 05:02:35;;;;;;;36.83;21.70;;;3.50;99.90;;;;;;5041494;28;20025;-69
2021/04/16 05:05:01;;;;;;;40.13;22.65;;;3.40;99.90;;;;;;5058906;28;20044;-69
2021/04/16 05:07:27;;;;;;;35.38;21.70;;;3.50;99.90;;;;;;5057390;28;20029;-71
2021/04/16 05:09:53;;;;;;;41.28;24.05;;;3.70;99.90;;;;;;5058047;28;20031;-72
2021/04/16 05:12:19;;;;;;;34.28;21.20;;;3.70;99.90;;;;;;5058085;28;20029;-68
2021/04/16 05:14:46;;;;;;;44.20;23.83;;;3.70;99.90;;;;;;5057962;28;20551;-71
2021/04/16 05:17:13;;;;;;;38.40;22.45;;;3.80;99.90;;;;;;5060404;28;20021;-67
2021/04/16 05:19:40;;;;;;;35.70;20.45;;;3.80;99.90;;;;;;5056988;28;20119;-71
2021/04/16 05:22:06;;;;;;;33.15;20.33;;;3.90;99.90;;;;;;5059214;28;20025;-67
2021/04/16 05:24:34;;;;;;;42.00;23.25;;;4.00;99.90;;;;;;5040281;28;20546;-67
2021/04/16 05:27:04;;;;;;;45.83;23.90;;;4.00;99.90;;;;;;5100764;28;20031;-68
2021/04/16 05:29:30;;;;;;;56.58;29.95;;;4.00;99.90;;;;;;5099974;28;20031;-71
2021/04/16 05:31:56;;;;;;;47.97;26.13;;;3.90;99.90;;;;;;5100371;28;20107;-67
2021/04/16 05:34:22;;;;;;;49.92;27.60;;;4.10;99.90;;;;;;5119364;28;20047;-70
2021/04/16 05:36:48;;;;;;;43.33;26.48;;;4.20;99.90;;;;;;5119915;28;20020;-67
2021/04/16 05:39:15;;;;;;;36.63;25.27;;;4.30;99.90;;;;;;5118797;28;20443;-68
2021/04/16 05:41:42;;;;;;;32.35;19.95;;;4.40;99.90;;;;;;5120015;28;20023;-72
2021/04/16 05:44:08;;;;;;;26.63;18.33;;;4.40;99.90;;;;;;5119087;28;20019;-68
2021/04/16 05:46:35;;;;;;;20.63;14.80;;;4.50;99.90;;;;;;5121115;28;20108;-72
2021/04/16 05:49:01;;;;;;;23.80;14.57;;;4.60;99.80;;;;;;5120469;28;20016;-69
2021/04/16 05:51:27;;;;;;;18.10;13.23;;;4.70;99.60;;;;;;5119699;28;20056;-68
2021/04/16 05:53:53;;;;;;;19.90;12.98;;;4.80;99.70;;;;;;5120365;28;20533;-70
2021/04/16 05:56:22;;;;;;;20.98;13.95;;;4.90;99.50;;;;;;5121153;28;20034;-71
2021/04/16 05:58:48;;;;;;;23.55;16.52;;;5.00;99.60;;;;;;5117609;28;20032;-69
2021/04/16 06:01:14;;;;;;;17.85;11.93;;;5.10;99.10;;;;;;5116324;27;20020;-69
2021/04/16 06:03:42;;;;;;;20.45;14.18;;;5.20;98.00;;;;;;5115276;28;20074;-67
2021/04/16 06:06:08;;;;;;;15.90;11.30;;;5.20;98.40;;;;;;5115227;27;20028;-67
2021/04/16 06:08:34;;;;;;;15.52;9.80;;;5.30;97.20;;;;;;5116267;27;20019;-70
2021/04/16 06:11:00;;;;;;;23.98;15.07;;;5.40;96.80;;;;;;5116384;28;20478;-68
2021/04/16 06:13:28;;;;;;;14.68;10.88;;;5.50;97.70;;;;;;5116382;28;20157;-68
2021/04/16 06:15:54;;;;;;;17.38;11.52;;;5.60;97.60;;;;;;5115148;28;20042;-71
2021/04/16 06:18:22;;;;;;;14.85;9.82;;;5.80;97.30;;;;;;5117811;28;20055;-67
2021/04/16 06:20:48;;;;;;;13.70;8.88;;;5.80;96.70;;;;;;5117103;28;20031;-68
2021/04/16 06:23:15;;;;;;;11.63;8.60;;;5.90;96.20;;;;;;5118140;28;20023;-68
2021/04/16 06:25:41;;;;;;;14.23;9.32;;;6.00;96.70;;;;;;5117581;28;20077;-67
2021/04/16 06:28:07;;;;;;;15.10;10.95;;;6.10;96.30;;;;;;5118905;28;20042;-68
2021/04/16 06:30:34;;;;;;;24.95;13.98;;;6.20;96.20;;;;;;5117578;28;20016;-71
2021/04/16 06:33:15;;;;;;;13.40;9.05;;;6.20;95.60;;;;;;5119409;28;20019;-69
2021/04/16 06:35:47;;;;;;;14.23;10.13;;;6.20;95.50;;;;;;5119282;28;20370;-70
2021/04/16 06:38:15;;;;;;;15.98;11.02;;;6.30;95.80;;;;;;5119934;28;20023;-68
2021/04/16 06:40:45;;;;;;;22.65;13.02;;;6.50;95.20;;;;;;5114642;28;20027;-67
2021/04/16 06:43:11;;;;;;;23.83;15.38;;;6.50;95.40;;;;;;5114846;28;20099;-68
2021/04/16 06:45:37;;;;;;;17.48;11.95;;;6.50;94.50;;;;;;5115923;28;20080;-72
2021/04/16 06:48:07;;;;;;;51.58;28.23;;;6.50;94.40;;;;;;5115743;28;20055;-68
2021/04/16 06:50:42;;;;;;;27.23;16.13;;;;;;;;;;5114444;28;20054;-68
2021/04/16 06:53:31;;;;;;;65.00;49.20;;;6.60;94.40;;;;;;5114572;28;20031;-67
2021/04/16 06:56:13;;;;;;;16.35;13.77;;;6.80;95.10;;;;;;5114573;28;20024;-67
2021/04/16 06:58:58;;;;;;;17.10;14.02;;;7.00;95.10;;;;;;5112890;28;20473;-68
2021/04/16 07:01:36;;;;;;;13.75;10.82;;;7.00;94.30;;;;;;5112266;28;20049;-69
2021/04/16 07:04:08;;;;;;;13.73;10.40;;;7.10;93.80;;;;;;5110136;28;20496;-68
2021/04/16 07:06:34;;;;;;;14.57;11.40;;;7.20;94.80;;;;;;5112789;28;20019;-69
2021/04/16 07:09:13;;;;;;;10.05;8.05;;;7.30;93.60;;;;;;5113251;28;20342;-69
2021/04/16 07:11:46;;;;;;;10.90;8.70;;;7.30;93.70;;;;;;5109904;28;20114;-72
2021/04/16 07:14:22;;;;;;;16.38;12.35;;;7.40;93.40;;;;;;5112837;28;20030;-71
2021/04/16 07:16:47;;;;;;;15.27;11.85;;;7.40;92.60;;;;;;5112837;28;20020;-68
2021/04/16 07:19:16;;;;;;;11.23;9.95;;;7.50;93.50;;;;;;5113439;28;20035;-68
2021/04/16 07:21:42;;;;;;;11.27;9.00;;;7.60;91.50;;;;;;5113192;28;20016;-67
2021/04/16 07:24:11;;;;;;;14.02;10.73;;;7.80;92.70;;;;;;5118564;28;20065;-68
2021/04/16 07:26:43;;;;;;;15.50;9.82;;;7.90;92.80;;;;;;5118321;28;20023;-69
2021/04/16 07:29:33;;;;;;;12.80;9.93;;;8.20;91.70;;;;;;5117913;28;20051;-70
2021/04/16 07:32:01;;;;;;;9.48;8.20;;;8.30;91.90;;;;;;5117120;28;20103;-71
2021/04/16 07:34:37;;;;;;;10.80;9.32;;;8.40;91.90;;;;;;5117619;28;20020;-68
2021/04/16 07:37:16;;;;;;;7.72;6.82;;;8.30;91.60;;;;;;5117060;28;20027;-67
2021/04/16 07:39:51;;;;;;;11.77;6.88;;;8.40;91.10;;;;;;5118660;28;20108;-70
2021/04/16 07:42:20;;;;;;;;;;;8.60;91.60;;;;;;5120787;28;20480;-68
2021/04/16 07:45:06;;;;;;;9.45;7.88;;;8.50;91.20;;;;;;5120675;28;20381;-71
2021/04/16 07:47:34;;;;;;;18.60;12.63;;;8.80;91.90;;;;;;5119736;28;20098;-72
2021/04/16 07:50:03;;;;;;;16.05;11.32;;;8.70;91.30;;;;;;5119225;28;20016;-75
2021/04/16 07:52:35;;;;;;;14.05;10.00;;;;;;;;;;5121592;28;20477;-68
2021/04/16 07:55:29;;;;;;;12.63;9.55;;;9.20;91.70;;;;;;5120711;28;20030;-68
2021/04/16 07:58:21;;;;;;;19.20;12.98;;;9.10;88.00;;;;;;5108199;28;20031;-68
2021/04/16 08:00:49;;;;;;;16.48;12.43;;;9.30;85.60;;;;;;5117601;28;20035;-68
2021/04/16 08:03:25;;;;;;;9.55;7.28;;;9.30;90.20;;;;;;5118568;28;20101;-69
2021/04/16 08:05:53;;;;;;;6.90;5.80;;;9.40;83.00;;;;;;5117902;28;20035;-69
2021/04/16 08:08:25;;;;;;;8.75;6.93;;;9.40;84.40;;;;;;5118401;28;20095;-68
2021/04/16 08:11:06;;;;;;;9.52;6.85;;;9.90;85.50;;;;;;5117627;28;20024;-70
2021/04/16 08:13:54;;;;;;;10.02;7.20;;;10.30;88.60;;;;;;5116677;28;20020;-71
2021/04/16 08:16:21;;;;;;;12.70;8.23;;;;;;;;;;5115362;28;20027;-70
2021/04/16 08:18:56;;;;;;;7.90;6.32;;;10.30;84.00;;;;;;5117568;28;20565;-69
2021/04/16 08:21:23;;;;;;;10.70;7.57;;;;;;;;;;5114494;28;20093;-69
2021/04/16 08:23:56;;;;;;;8.82;6.85;;;10.70;80.40;;;;;;5116641;28;20023;-69
2021/04/16 08:26:28;;;;;;;11.77;8.15;;;11.00;81.60;;;;;;5119484;28;20489;-70
2021/04/16 08:29:19;;;;;;;297.42;104.50;;;10.50;77.20;;;;;;5120402;28;20026;-70
2021/04/16 08:31:59;;;;;;;28.13;15.90;;;10.90;69.30;;;;;;5119962;28;20023;-69
2021/04/16 08:34:55;;;;;;;12.80;6.97;;;10.70;70.40;;;;;;5118336;28;20016;-74
2021/04/16 08:37:26;;;;;;;50.15;26.75;;;11.00;74.20;;;;;;5115047;28;20024;-72
2021/04/16 08:39:53;;;;;;;58.78;29.58;;;11.00;70.70;;;;;;5120767;28;20376;-69
2021/04/16 08:42:32;;;;;;;9.82;7.20;;;10.90;71.40;;;;;;5117481;28;20020;-69
2021/04/16 08:45:30;;;;;;;38.20;18.52;;;10.90;75.70;;;;;;5117157;28;20042;-69
2021/04/16 08:48:20;;;;;;;16.80;9.85;;;10.80;72.30;;;;;;5113210;28;20449;-70
2021/04/16 08:50:50;;;;;;;15.80;9.68;;;11.30;75.30;;;;;;5116846;28;20130;-72
2021/04/16 08:53:16;;;;;;;75.93;31.27;;;11.30;73.20;;;;;;5119101;28;20035;-74
2021/04/16 08:55:47;;;;;;;20.13;9.80;;;11.70;75.50;;;;;;5119089;28;20023;-72
2021/04/16 08:58:25;;;;;;;13.98;8.30;;;11.90;67.00;;;;;;5118641;28;20404;-70
2021/04/16 09:01:12;;;;;;;45.15;19.25;;;11.20;64.40;;;;;;5116301;28;20104;-70
2021/04/16 09:03:54;;;;;;;20.38;11.85;;;11.10;65.00;;;;;;5120516;28;20055;-72
2021/04/16 09:06:25;;;;;;;39.58;15.77;;;11.80;71.00;;;;;;5127975;28;19999;-73
2021/04/16 09:08:52;;;;;;;24.70;12.02;;;12.00;67.00;;;;;;5125534;28;20024;-73
2021/04/16 09:11:41;;;;;;;30.30;14.07;;;12.30;71.80;;;;;;5119651;28;20114;-73
2021/04/16 09:14:11;;;;;;;19.40;9.10;;;11.40;64.60;;;;;;5112851;28;20142;-72
2021/04/16 09:16:47;;;;;;;6.22;4.40;;;11.70;67.10;;;;;;5125672;27;20024;-68
2021/04/16 09:19:25;;;;;;;5.50;4.25;;;11.80;69.10;;;;;;5119990;27;20512;-68
2021/04/16 09:22:04;;;;;;;13.70;8.27;;;12.00;68.80;;;;;;5117038;28;20096;-72
2021/04/16 09:24:42;;;;;;;14.80;8.40;;;11.30;67.10;;;;;;5116776;28;20358;-69
2021/04/16 09:27:25;;;;;;;30.40;13.50;;;11.60;72.50;;;;;;5123006;28;20024;-68
2021/04/16 09:29:52;;;;;;;211.75;75.00;;;12.20;69.70;;;;;;5121333;28;20028;-74
2021/04/16 09:32:53;;;;;;;67.78;27.67;;;12.60;84.80;;;;;;5124842;28;20477;-73
2021/04/16 09:35:19;;;;;;;26.42;10.77;;;12.30;78.70;;;;;;5091745;28;20023;-74
2021/04/16 09:37:50;;;;;;;186.90;67.10;;;12.90;68.60;;;;;;5123855;28;20008;-73
2021/04/16 09:40:21;;;;;;;13.68;7.57;;;12.40;60.20;;;;;;5118138;28;20027;-68
2021/04/16 09:42:57;;;;;;;64.35;25.60;;;13.00;65.80;;;;;;5123813;28;20476;-69
2021/04/16 09:45:28;;;;;;;15.60;8.25;;;13.60;86.60;;;;;;5117917;28;20385;-69
2021/04/16 09:48:04;;;;;;;106.72;41.72;;;13.40;83.10;;;;;;5124083;28;20006;-74
2021/04/16 09:50:43;;;;;;;15.32;8.20;;;13.50;80.80;;;;;;5118071;28;20034;-68
2021/04/16 09:53:20;;;;;;;6.68;5.13;;;13.70;80.80;;;;;;5123234;28;20025;-73
2021/04/16 09:55:57;;;;;;;68.53;27.02;;;13.70;80.90;;;;;;5122214;28;20512;-66
2021/04/16 09:58:35;;;;;;;11.57;6.63;;;13.20;76.80;;;;;;5116730;28;20382;-71
2021/04/16 10:01:09;;;;;;;9.73;5.55;;;13.60;80.70;;;;;;5116767;28;20023;-66
2021/04/16 10:03:52;;;;;;;14.27;8.07;;;13.50;77.00;;;;;;5121516;28;20540;-69
2021/04/16 10:06:37;;;;;;;16.13;9.63;;;13.10;81.10;;;;;;5120233;28;20064;-72
2021/04/16 10:09:32;;;;;;;27.38;12.43;;;12.70;78.80;;;;;;5122367;28;20016;-70
2021/04/16 10:12:20;;;;;;;11.23;8.73;;;13.60;83.60;;;;;;5110497;28;20035;-71
2021/04/16 10:14:45;;;;;;;14.15;7.78;;;13.70;78.20;;;;;;5121953;28;20115;-68
2021/04/16 10:17:14;;;;;;;6.13;4.80;;;14.00;60.70;;;;;;5124584;28;20058;-66
2021/04/16 10:19:43;;;;;;;34.63;17.30;;;14.10;80.20;;;;;;5124567;28;20035;-71
2021/04/16 10:22:20;;;;;;;27.13;13.52;;;14.50;75.60;;;;;;5124964;28;20016;-67
2021/04/16 12:39:28;;;;;;;16.45;11.50;;;11.80;56.30;;;;;;5122584;28;20042;-65
2021/04/16 12:41:57;;;;;;;6.45;4.88;;;11.70;56.20;;;;;;5121885;28;20051;-69
2021/04/16 12:44:42;;;;;;;7.00;5.60;;;11.70;55.10;;;;;;5123391;28;20435;-72
2021/04/16 12:47:22;;;;;;;14.02;10.35;;;11.90;57.80;;;;;;5121549;28;20020;-65
2021/04/16 12:49:48;;;;;;;21.10;15.07;;;11.90;58.60;;;;;;5122356;28;20032;-64
2021/04/16 12:52:17;;;;;;;18.55;11.77;;;11.70;57.00;;;;;;5119652;28;20079;-66
2021/04/16 12:54:48;;;;;;;13.45;8.70;;;11.70;58.90;;;;;;5122700;27;20027;-66
2021/04/16 12:57:38;;;;;;;8.63;6.32;;;11.70;58.20;;;;;;5119455;28;20041;-66
2021/04/16 13:00:10;;;;;;;9.98;7.43;;;11.80;57.50;;;;;;5106241;28;20618;-66
2021/04/16 13:02:36;;;;;;;12.82;10.05;;;11.80;60.10;;;;;;5120344;28;20378;-65
2021/04/16 13:05:07;;;;;;;8.70;7.03;;;11.70;60.50;;;;;;5121090;28;20477;-65
2021/04/16 13:07:34;;;;;;;39.47;17.35;;;11.50;58.20;;;;;;5120842;28;20372;-68
2021/04/16 13:10:00;;;;;;;30.95;10.35;;;11.50;60.50;;;;;;5120199;28;20045;-65
2021/04/16 13:12:26;;;;;;;9.05;5.43;;;11.70;61.60;;;;;;5121109;28;20024;-65
2021/04/16 13:14:52;;;;;;;20.38;13.05;;;12.00;60.80;;;;;;5122340;28;20023;-69
2021/04/16 13:17:23;;;;;;;14.85;8.25;;;11.60;55.30;;;;;;5119566;28;20016;-70
2021/04/16 13:19:50;;;;;;;12.10;6.13;;;11.90;58.20;;;;;;5120280;28;20038;-65
2021/04/16 13:22:18;;;;;;;34.97;20.38;;;12.10;59.60;;;;;;5119986;28;20150;-66
2021/04/16 13:24:46;;;;;;;13.63;10.65;;;12.10;58.90;;;;;;5120449;28;20038;-69
2021/04/16 13:27:20;;;;;;;15.73;11.48;;;12.30;59.10;;;;;;5121116;28;20378;-70
2021/04/16 13:29:46;;;;;;;23.52;16.67;;;12.30;59.80;;;;;;5120243;28;20537;-65
2021/04/16 13:32:17;;;;;;;9.55;7.10;;;12.30;58.20;;;;;;5118544;28;20095;-71
2021/04/16 13:34:44;;;;;;;18.85;12.77;;;12.20;55.30;;;;;;5117426;28;20025;-68
2021/04/16 13:37:18;;;;;;;34.80;20.98;;;12.40;57.90;;;;;;5119421;28;20032;-66
2021/04/16 13:39:44;;;;;;;23.75;15.93;;;;;;;;;;5114705;28;20039;-65
2021/04/16 13:42:11;;;;;;;22.67;14.43;;;12.50;58.00;;;;;;5113688;28;20095;-66
2021/04/16 13:44:36;;;;;;;10.90;7.57;;;12.40;55.80;;;;;;5113590;28;20061;-67
2021/04/16 13:47:05;;;;;;;14.80;8.48;;;12.60;57.50;;;;;;5112906;28;20043;-66
2021/04/16 13:49:38;;;;;;;18.17;12.68;;;12.80;57.00;;;;;;5112942;28;20103;-66
2021/04/16 13:52:04;;;;;;;55.78;36.25;;;12.70;57.00;;;;;;5112989;28;20470;-68
2021/04/16 13:54:32;;;;;;;47.33;32.85;;;12.40;54.90;;;;;;5114250;28;20024;-70
2021/04/16 13:56:58;;;;;;;7.80;6.70;;;12.20;53.20;;;;;;5117302;28;20027;-67
2021/04/16 13:59:25;;;;;;;26.40;16.50;;;12.40;56.00;;;;;;5115224;28;20027;-67
2021/04/16 14:01:53;;;;;;;162.25;70.88;;;12.20;53.80;;;;;;5123050;28;20533;-71
2021/04/16 14:04:26;;;;;;;224.93;98.97;;;12.30;55.70;;;;;;5120756;28;20111;-71
2021/04/16 14:06:57;;;;;;;56.25;29.52;;;12.20;57.20;;;;;;5125801;28;20032;-69
2021/04/16 14:09:24;;;;;;;13.07;7.80;;;12.10;53.90;;;;;;5127778;28;20015;-67
2021/04/16 14:11:54;;;;;;;8.77;6.78;;;12.30;55.50;;;;;;5124999;28;20049;-70
2021/04/16 14:14:26;;;;;;;7.63;5.68;;;12.10;53.20;;;;;;5124797;28;20032;-70
2021/04/16 14:16:59;;;;;;;12.52;8.23;;;12.10;53.90;;;;;;5128642;28;20035;-71
2021/04/16 14:19:47;;;;;;;12.32;8.90;;;12.30;58.40;;;;;;5125666;28;20035;-70
2021/04/16 14:22:22;;;;;;;9.00;6.35;;;12.50;59.40;;;;;;5112023;28;20039;-70
2021/04/16 14:24:49;;;;;;;7.63;5.13;;;12.70;58.70;;;;;;5127660;28;20028;-65
2021/04/16 14:27:15;;;;;;;7.97;5.00;;;12.80;56.20;;;;;;5123902;28;20012;-70
2021/04/16 14:29:41;;;;;;;24.15;13.07;;;12.80;54.50;;;;;;5120596;28;20019;-66
2021/04/16 14:32:10;;;;;;;17.77;9.73;;;12.60;55.00;;;;;;5123861;27;20036;-70
2021/04/16 14:34:38;;;;;;;30.65;15.93;;;12.50;54.80;;;;;;5124391;28;20054;-70
2021/04/16 14:37:04;;;;;;;11.32;7.57;;;12.50;56.10;;;;;;5123815;28;20037;-69
2021/04/16 14:39:30;;;;;;;11.98;7.88;;;12.40;55.50;;;;;;5125830;28;20012;-69
2021/04/16 14:41:58;;;;;;;10.13;7.20;;;12.40;57.00;;;;;;5123041;28;20043;-66
2021/04/16 14:44:24;;;;;;;13.85;9.20;;;12.60;59.00;;;;;;5124090;28;20008;-70
2021/04/16 14:46:52;;;;;;;6.45;5.20;;;12.70;58.20;;;;;;5125114;28;20077;-70
2021/04/16 14:49:27;;;;;;;10.60;6.88;;;12.80;54.40;;;;;;5125121;28;20015;-66
2021/04/16 14:51:55;;;;;;;6.32;5.13;;;12.90;57.30;;;;;;5120318;28;20035;-69
2021/04/16 14:54:29;;;;;;;9.70;5.78;;;12.50;51.10;;;;;;5122272;28;20012;-67
2021/04/16 14:56:56;;;;;;;11.17;7.37;;;12.40;53.80;;;;;;5119685;28;20022;-65
2021/04/16 14:59:35;;;;;;;8.57;6.45;;;12.40;57.30;;;;;;5123681;28;20272;-69
2021/04/16 15:02:01;;;;;;;7.60;5.78;;;12.50;58.10;;;;;;5118088;28;20031;-66
2021/04/16 15:04:27;;;;;;;9.40;6.97;;;12.50;58.30;;;;;;5123173;28;20089;-67
2021/04/16 15:07:00;;;;;;;14.68;9.77;;;12.40;57.00;;;;;;5127144;28;20035;-68
2021/04/16 15:09:43;;;;;;;19.05;12.88;;;12.50;58.90;;;;;;5122729;28;20019;-69